Timeline UpdatesTrip UpdatesNews PostsPvt PostsTravel TipsAdmin PostsConv PostsFollowed PostsChat RequestsBlog PostsPNR Posts

Disclaimer
Search
 
 
Tue Sep 2, 2014 09:49:21 ISTHomeTrainsΣChainsAtlasPNRForumGalleryNewsFAQTripsMembersLoginFeedback
No Recent News for this Train
Other Trains in the News **new
Latest...
..
Thu Sep 27, 2012 (12:15AM)
⇐ Return Journey: Train# 51426

51425/ParliVaijnath-Miraj Passenger (UnReserved)

OLD Time-Table. Click here to UPDATE TT
Sep 11 2013 (11:10PM)
Change Departure Station:
Change Arrival Station:
Post a Train Travel TipPost a Train Travel Tip **new
Post a Comment/Question/Picture/VideoPost a Comment/Question/Picture/Video
Inaugural Run
Sun Feb 20, 2011
Pantry/Catering
✕ NO Pantry Car
✕ NO Catering
Loco/Rake Reversals
LTRR/Latur Road Junction (3);
RSA - Rake Sharing
51419 (MRJ-UBL Passenger).
Rake/Coach Composition
SLR-2, UR-6,
Loco
PUNE WDM 2/3
News    PNR    Forum    Time-Table    Availability    Fare Chart    Map    Arr/Dep History    Trips    Gallery    ΣChains    X/O    Timeline    
Travel Time: 1h 46m    -2 halts    Distance: 82 km    Avg Speed: 46 km/hr
Type: Passenger
Zone: CR/Central
Departs @ 07:25
Platform# ???
SMTWTFS
Parli Vaijnath/PRLI 
Arrives @ 09:11
Platform# ???
SMTWTFS
Bhatangli/BANL 

-2 halts. 8 intermediate Stations between Parli Vaijnath and Bhatangli

Hide intermediate Stations  

#CodeStation NameX/OArrivesAvgDepartsAvgHaltPFDay#KmSpeedElevZoneAddress
1PRLIParli Vaijnath (3)  -07:25---10.099462mSCRParli-Vaijnath, Maharashtra
2GTUGhat Nandur (1)  07:39-07:40-1m1123.254634mSCRGhat Nadur, Maharashtra
2.1MRTYMurti (1)  07:45-07:45-  127.6 54624mSCRState Highway 169, Maharashtra
3PNFPangaon (1)  07:54-07:55-1m1135.748637mSCRPangaon, Maharashtra
4KRPRKarepur (1)  08:04-08:05-1m1143.0129620mSCRState Highway 168, Maharashtra
5JOAJanwal (1)  08:09-08:10-1m1151.6104645mSCRLatur, Maharashtra
6WDLNWadwal Nagnath (1)  08:14-08:15-1m1158.514638mSCRWadwal Nagnath, Maharashtra
7LTRRLatur Road Junction (3)08:35-08:50-15m1163.156648mSCRLatur Road ph.no 02381 258044, Maharashtra
7.1GANIGharni  09:04-09:04-  176.5 56623mCRMSH3, Maharashtra
7.2BANLBhatangli  09:11-09:11-  182.4 56591mCRMSH3, Maharashtra
8LURLatur (2)  09:25-09:30-5m1195.838622mCRLatur, Maharashtra
9HGLHarangul  09:44-09:45-1m--1104.760644mCRState Highway 77, Maharashtra
10OSAAusa Road  09:55-09:56-1m--1114.766659mCRState Highway 77, Maharashtra
10.1NEINeoli  10:06-10:06-  1125.6 66686mCRState Highway 77, Maharashtra
11MRXMurud  10:12-10:13-1m--1132.250700mCRLatur, Maharashtra
12PCPPalsap  10:21-10:22-1m--1138.840668mCRState Highway 77, Maharashtra
13TERThair  10:29-10:30-1m--1143.520661mCRState Highway 77, Maharashtra
14DKYDhokiX  10:45-10:47-2m--1148.537667mCRDhoki Town, Maharashtra
15KMRDKalamb Road  10:57-10:58-1m--1154.657674mCRTadwale, Maharashtra
16YSIYedshi  11:09-11:10-1m--1165.127691mCRNational Highway 211, Maharashtra
17UMDOsmanabad (2)  11:32-11:35-3m11175.159679mCROsmanabad, Maharashtra
18PJRPangri  11:54-11:55-1m--1193.758554mCRState Highway 77, Maharashtra
18.1KCBKuslamb  12:00-12:00-  1198.7 58534mCRState Highway 77, Maharashtra
19BTWBarsi Town (1)  12:13-12:15-2m11211.158528mCRBarshi, Maharashtra
19.1UPIUplai  12:27-12:27-  1222.6 58501mCRState Highway 77, Maharashtra
20SEIShendri  12:33-12:35-2m--1228.448499mCRState Highway 77, Maharashtra
20.1MGOMahisgaon  12:49-12:49-  1239.4 48508mCRState Highway 77, Maharashtra
20.2CNHLChink Hill  12:54-12:54-  1243.5 48518mCRState Highway 77, Maharashtra
21KWVKurduvadi Junction (4)X  13:00-14:00-60m41248.458516mCRKurduvadi Dist-Solapur, Maharashtra
22LAULLaul  14:09-14:10-1m11257.157530mCRState Highway 161, Maharashtra
22.1PSSPadsali  14:14-14:14-  1260.8 57552mCRLaul, Maharashtra
23MLBModnimb  14:24-14:25-1m11270.557510mCRShetfal, Maharashtra
24AHIAshti  14:34-14:35-1m--1279.053489mCRState Highway 161, Maharashtra
24.1BBVBabhulgaon  14:43-14:43-  1285.8 53479mCRState Highway 161, Maharashtra
25PVRPandharpur (3)  15:00-15:05-5m11301.143469mCRPandharpur Ph:02186-223227, Maharashtra
26BHLIBohali  15:19-15:20-1m--1311.164499mCRState Highway 161, Maharashtra
27BMNIBamani  15:29-15:30-1m11320.775485mCRState Highway 161, Maharashtra
28SGLASangola (2)X  15:38-15:40-2m--1330.783505mCRSangole, Maharashtra
29WSDWasud  15:47-15:48-1m--1340.437523mCRsolapur, Maharashtra
30JVAJavale  15:57-15:58-1m--1346.070538mCRState Highway 71, Maharashtra
31MSDGMasoba Dongargaon (1)  16:02-16:03-1m--1350.773548mCRJath, Maharashtra
32JTRDJath Road  16:09-16:10-1m--1358.070567mCRState Highway 71, Maharashtra
33GLVGulvanchi  16:19-16:20-1m--1368.551623mCRJath Rd, Maharashtra
34DLGNDhalgaon  16:29-16:30-1m--1376.055669mCRJath Rd, Maharashtra
35LNPLangarpeth  16:35-16:36-1m--1380.653658mCRJath Rd, Maharashtra
36KVKKavathe Mahankal  16:49-16:50-1m--1392.140637mCRKavthe Mahankal, Maharashtra
37AGDLAgran Dhulgaon  16:55-16:56-1m--1395.555611mCRJath Rd, Maharashtra
38SGRESulgare  17:05-17:06-1m--1403.781627mCRJath Rd, Maharashtra
39BLNKBelanki  17:11-17:12-1m--1410.531625mCRJath Rd, Maharashtra
40ARAGArag  17:22-17:23-1m--1415.633650mCRJath Rd, Maharashtra
40.1BDKBedag  17:29-17:29-  1418.7 33649mCRErandoli, Maharashtra
41BLWDBolwad  17:34-17:35-1m--1421.622646mCRBolwad, Maharashtra
42MRJMiraj Junction (6)  18:20--51437.9-554mCRMiraj 416410, Maharashtra
Scroll to Top
Scroll to Bottom